createdAt,value
2018-06-11T00:00:26.509Z,99.50
2018-06-11T00:02:54.858Z,99.60
2018-06-11T00:05:23.181Z,99.70
2018-06-11T00:07:51.554Z,99.70
2018-06-11T00:10:19.873Z,99.90
2018-06-11T00:12:48.231Z,99.50
2018-06-11T00:15:16.549Z,99.50
2018-06-11T00:17:44.894Z,99.60
2018-06-11T00:20:12.447Z,99.60
2018-06-11T00:22:40.789Z,99.40
2018-06-11T00:25:09.103Z,99.60
2018-06-11T00:27:37.451Z,99.60
2018-06-11T00:30:05.766Z,99.70
2018-06-11T00:32:34.111Z,99.70
2018-06-11T00:35:02.426Z,99.60
2018-06-11T00:37:30.769Z,99.70
2018-06-11T00:39:59.098Z,99.60
2018-06-11T00:42:27.448Z,99.70
2018-06-11T00:44:55.764Z,99.70
2018-06-11T00:47:24.139Z,99.60
2018-06-11T00:49:52.462Z,99.50
2018-06-11T00:52:20.791Z,99.50
2018-06-11T00:54:49.136Z,99.40
2018-06-11T00:57:17.454Z,99.40
2018-06-11T00:59:45.801Z,99.30
2018-06-11T01:02:14.115Z,99.40
2018-06-11T01:04:42.460Z,99.50
2018-06-11T01:07:10.782Z,99.60
2018-06-11T01:09:38.367Z,99.60
2018-06-11T01:12:06.721Z,99.60
2018-06-11T01:14:35.077Z,99.60
2018-06-11T01:17:03.394Z,99.60
2018-06-11T01:19:31.732Z,99.50
2018-06-11T01:22:00.052Z,99.40
2018-06-11T01:24:28.401Z,99.60
2018-06-11T01:26:56.728Z,99.70
2018-06-11T01:29:25.073Z,99.90
2018-06-11T01:31:53.399Z,99.90
2018-06-11T01:34:21.762Z,99.90
2018-06-11T01:36:49.317Z,99.90
2018-06-11T01:39:17.637Z,99.70
2018-06-11T01:41:45.995Z,99.70
2018-06-11T01:44:14.309Z,99.70
2018-06-11T01:46:42.646Z,99.50
2018-06-11T01:49:10.962Z,99.60
2018-06-11T01:51:39.492Z,99.60
2018-06-11T01:54:07.824Z,99.60
2018-06-11T01:56:35.393Z,99.50
2018-06-11T01:59:03.707Z,99.50
2018-06-11T02:01:32.050Z,99.50
2018-06-11T02:04:00.374Z,99.50
2018-06-11T02:06:28.725Z,99.50
2018-06-11T02:08:56.281Z,99.50
2018-06-11T02:11:24.638Z,99.50
2018-06-11T02:13:52.961Z,99.50
2018-06-11T02:16:21.301Z,99.50
2018-06-11T02:18:49.620Z,99.60
2018-06-11T02:21:17.958Z,99.60
2018-06-11T02:23:46.278Z,99.50
2018-06-11T02:26:14.646Z,99.50
2018-06-11T02:28:42.985Z,99.60
2018-06-11T02:31:11.302Z,99.90
2018-06-11T02:33:39.650Z,99.70
2018-06-11T02:36:07.978Z,99.60
2018-06-11T02:38:36.341Z,99.60
2018-06-11T02:41:04.666Z,99.70
2018-06-11T02:43:33.006Z,99.70
2018-06-11T02:46:01.388Z,99.60
2018-06-11T02:48:29.745Z,99.60
2018-06-11T02:50:58.073Z,99.50
2018-06-11T02:53:26.420Z,99.60
2018-06-11T02:55:54.738Z,99.40
2018-06-11T02:58:23.089Z,99.40
2018-06-11T03:00:51.418Z,99.30
2018-06-11T03:03:19.761Z,99.30
2018-06-11T03:05:48.080Z,99.30
2018-06-11T03:08:16.494Z,99.20
2018-06-11T03:10:44.056Z,99.20
2018-06-11T03:13:12.377Z,99.40
2018-06-11T03:15:40.720Z,99.40
2018-06-11T03:18:09.043Z,99.20
2018-06-11T03:20:37.393Z,99.10
2018-06-11T03:23:05.718Z,99.10
2018-06-11T03:25:34.058Z,99.00
2018-06-11T03:28:02.382Z,98.80
2018-06-11T03:30:30.729Z,99.10
2018-06-11T03:32:59.044Z,99.10
2018-06-11T03:35:27.394Z,99.20
2018-06-11T03:37:55.714Z,98.90
2018-06-11T03:40:24.055Z,98.80
2018-06-11T03:42:52.372Z,98.70
2018-06-11T03:45:20.719Z,98.80
2018-06-11T03:47:49.040Z,99.00
2018-06-11T03:50:17.390Z,99.00
2018-06-11T03:52:45.759Z,98.90
2018-06-11T03:55:14.067Z,99.00
2018-06-11T03:57:42.385Z,98.80
2018-06-11T04:00:09.962Z,98.70
2018-06-11T04:02:38.279Z,98.70
2018-06-11T04:05:06.628Z,98.60
2018-06-11T04:07:34.955Z,98.80
2018-06-11T04:10:03.270Z,98.80
2018-06-11T04:12:32.364Z,98.80
2018-06-11T04:15:00.685Z,98.70
2018-06-11T04:17:29.036Z,98.70
2018-06-11T04:19:57.361Z,98.70
2018-06-11T04:22:25.702Z,98.70
2018-06-11T04:24:54.025Z,98.50
2018-06-11T04:27:22.366Z,98.30
2018-06-11T04:29:50.696Z,98.30
2018-06-11T04:32:19.044Z,98.10
2018-06-11T04:34:47.363Z,98.10
2018-06-11T04:37:15.705Z,97.90
2018-06-11T04:39:44.078Z,97.70
2018-06-11T04:42:12.393Z,97.40
2018-06-11T04:44:40.706Z,97.60
2018-06-11T04:47:09.044Z,97.40
2018-06-11T04:49:37.362Z,97.30
2018-06-11T04:52:05.719Z,97.30
2018-06-11T04:54:34.036Z,97.10
2018-06-11T04:57:02.384Z,97.10
2018-06-11T04:59:30.703Z,97.00
2018-06-11T05:01:59.048Z,96.90
2018-06-11T05:04:27.379Z,96.70
2018-06-11T05:06:55.694Z,96.50
2018-06-11T05:09:24.041Z,96.50
2018-06-11T05:11:52.366Z,96.50
2018-06-11T05:14:20.712Z,96.60
2018-06-11T05:16:49.029Z,96.50
2018-06-11T05:19:17.380Z,96.20
2018-06-11T05:21:45.699Z,96.30
2018-06-11T05:24:14.047Z,96.00
2018-06-11T05:26:42.368Z,95.90
2018-06-11T05:29:10.706Z,95.80
2018-06-11T05:31:39.038Z,96.10
2018-06-11T05:34:07.397Z,95.50
2018-06-11T05:36:35.734Z,96.00
2018-06-11T05:39:04.078Z,96.20
2018-06-11T05:41:32.410Z,95.90
2018-06-11T05:44:00.796Z,96.00
2018-06-11T05:46:29.121Z,95.90
2018-06-11T05:48:57.460Z,95.50
2018-06-11T05:51:25.770Z,95.20
2018-06-11T05:53:54.117Z,95.00
2018-06-11T05:56:22.437Z,94.90
2018-06-11T05:58:50.796Z,94.80
2018-06-11T06:01:19.111Z,95.00
2018-06-11T06:03:47.434Z,94.80
2018-06-11T06:06:15.782Z,94.30
2018-06-11T06:08:44.108Z,94.50
2018-06-11T06:11:11.698Z,94.50
2018-06-11T06:13:40.019Z,94.50
2018-06-11T06:16:08.370Z,94.70
2018-06-11T06:18:36.691Z,94.80
2018-06-11T06:21:05.025Z,94.50
2018-06-11T06:23:33.344Z,94.50
2018-06-11T06:26:01.697Z,94.30
2018-06-11T06:28:30.021Z,94.30
2018-06-11T06:30:58.452Z,94.30
2018-06-11T06:33:26.777Z,94.50
2018-06-11T06:35:55.126Z,94.30
2018-06-11T06:38:23.457Z,94.30
2018-06-11T06:40:51.801Z,94.30
2018-06-11T06:43:20.131Z,94.20
2018-06-11T06:45:48.485Z,94.10
2018-06-11T06:48:16.808Z,94.10
2018-06-11T06:50:45.155Z,94.10
2018-06-11T06:53:13.479Z,94.50
2018-06-11T06:55:41.829Z,94.80
2018-06-11T06:58:10.154Z,94.70
2018-06-11T07:00:38.488Z,94.80
2018-06-11T07:03:06.807Z,94.60
2018-06-11T07:05:35.141Z,94.40
2018-06-11T07:08:03.483Z,94.10
2018-06-11T07:10:31.879Z,94.20
2018-06-11T07:13:00.210Z,94.50
2018-06-11T07:15:27.762Z,94.50
2018-06-11T07:17:56.120Z,94.30
2018-06-11T07:20:23.680Z,94.30
2018-06-11T07:22:52.029Z,94.40
2018-06-11T07:25:20.360Z,94.40
2018-06-11T07:27:48.712Z,94.60
2018-06-11T07:30:17.057Z,94.20
2018-06-11T07:32:45.403Z,93.90
2018-06-11T07:35:13.731Z,93.50
2018-06-11T07:37:42.078Z,93.30
2018-06-11T07:40:10.453Z,93.00
2018-06-11T07:42:38.806Z,92.70
2018-06-11T07:45:07.132Z,92.60
2018-06-11T07:47:35.486Z,92.10
2018-06-11T07:50:03.805Z,91.80
2018-06-11T07:52:32.150Z,91.90
2018-06-11T07:55:00.501Z,91.40
2018-06-11T07:57:28.068Z,91.40
2018-06-11T07:59:56.453Z,90.90
2018-06-11T08:02:24.783Z,90.40
2018-06-11T08:04:53.134Z,89.90
2018-06-11T08:07:21.484Z,90.30
2018-06-11T08:09:49.830Z,90.30
2018-06-11T08:12:18.189Z,90.40
2018-06-11T08:14:46.538Z,90.30
2018-06-11T08:17:14.869Z,90.40
2018-06-11T08:19:43.225Z,90.70
2018-06-11T08:22:11.553Z,90.70
2018-06-11T08:24:39.893Z,90.70
2018-06-11T08:27:08.220Z,90.20
2018-06-11T08:29:36.574Z,89.90
2018-06-11T08:32:04.896Z,88.30
2018-06-11T08:34:33.258Z,86.90
2018-06-11T08:37:00.817Z,86.80
2018-06-11T08:39:29.170Z,85.50
2018-06-11T08:41:57.506Z,84.60
2018-06-11T08:44:25.858Z,84.80
2018-06-11T08:46:54.181Z,84.40
2018-06-11T08:49:22.537Z,83.80
2018-06-11T08:51:50.856Z,83.10
2018-06-11T08:54:19.201Z,81.90
2018-06-11T08:56:47.528Z,81.40
2018-06-11T08:59:15.894Z,81.70
2018-06-11T09:01:44.228Z,80.50
2018-06-11T09:04:12.553Z,81.30
2018-06-11T09:06:40.911Z,80.40
2018-06-11T09:09:09.231Z,80.60
2018-06-11T09:11:37.582Z,80.50
2018-06-11T09:14:05.911Z,80.40
2018-06-11T09:16:34.254Z,79.90
2018-06-11T09:19:02.573Z,78.00
2018-06-11T09:21:30.913Z,75.70
2018-06-11T09:23:59.237Z,74.40
2018-06-11T09:26:27.588Z,74.00
2018-06-11T09:28:55.920Z,73.40
2018-06-11T09:31:24.963Z,73.70
2018-06-11T09:33:53.303Z,73.60
2018-06-11T09:36:21.648Z,71.90
2018-06-11T09:38:49.974Z,71.60
2018-06-11T09:41:18.319Z,70.90
2018-06-11T09:43:46.679Z,70.40
2018-06-11T09:46:15.017Z,70.40
2018-06-11T09:48:43.340Z,70.30
2018-06-11T09:51:11.682Z,70.60
2018-06-11T09:53:40.001Z,70.40
2018-06-11T09:56:08.342Z,70.60
2018-06-11T09:58:36.669Z,70.10
2018-06-11T10:01:05.016Z,70.50
2018-06-11T10:03:33.350Z,70.30
2018-06-11T10:06:01.709Z,70.00
2018-06-11T10:08:30.065Z,70.20
2018-06-11T10:10:58.389Z,70.20
2018-06-11T10:13:26.737Z,69.90
2018-06-11T10:15:55.060Z,70.30
2018-06-11T10:18:23.404Z,70.50
2018-06-11T10:20:50.978Z,70.50
2018-06-11T10:23:19.329Z,71.10
2018-06-11T10:25:47.654Z,72.20
2018-06-11T10:28:16.006Z,73.10
2018-06-11T10:30:44.502Z,73.70
2018-06-11T10:33:12.853Z,74.20
2018-06-11T10:35:41.174Z,74.10
2018-06-11T10:38:09.521Z,74.80
2018-06-11T10:40:37.846Z,74.50
2018-06-11T10:43:06.196Z,74.60
2018-06-11T10:45:34.535Z,73.80
2018-06-11T10:48:02.898Z,74.10
2018-06-11T10:50:31.225Z,74.90
2018-06-11T10:52:59.583Z,75.40
2018-06-11T10:55:27.945Z,75.30
2018-06-11T10:57:56.321Z,75.10
2018-06-11T11:00:24.742Z,74.90
2018-06-11T11:02:53.084Z,75.40
2018-06-11T11:05:21.413Z,75.60
2018-06-11T11:07:49.763Z,76.60
2018-06-11T11:10:18.098Z,76.90
2018-06-11T11:12:46.455Z,77.00
2018-06-11T11:15:14.785Z,77.20
2018-06-11T11:17:42.341Z,77.20
2018-06-11T11:20:09.912Z,77.20
2018-06-11T11:22:38.237Z,77.20
2018-06-11T11:25:06.587Z,76.80
2018-06-11T11:27:34.901Z,76.10
2018-06-11T11:30:03.261Z,76.20
2018-06-11T11:32:31.596Z,75.60
2018-06-11T11:34:59.941Z,74.70
2018-06-11T11:37:28.280Z,74.80
2018-06-11T11:39:56.621Z,73.60
2018-06-11T11:42:24.945Z,72.50
2018-06-11T11:44:53.293Z,71.40
2018-06-11T11:47:21.664Z,71.10
2018-06-11T11:49:50.019Z,71.60
2018-06-11T11:52:18.444Z,71.00
2018-06-11T11:54:46.796Z,71.40
2018-06-11T11:57:15.119Z,71.90
2018-06-11T11:59:42.704Z,71.90
2018-06-11T12:02:11.071Z,73.50
2018-06-11T12:04:39.543Z,73.20
2018-06-11T12:07:07.957Z,73.50
2018-06-11T12:09:36.374Z,74.00
2018-06-11T12:12:04.740Z,74.50
2018-06-11T12:14:33.089Z,74.30
2018-06-11T12:17:00.645Z,74.20
2018-06-11T12:19:29.004Z,73.40
2018-06-11T12:21:57.331Z,73.20
2018-06-11T12:24:25.660Z,73.00
2018-06-11T12:26:54.026Z,72.90
2018-06-11T12:29:22.342Z,72.40
2018-06-11T12:31:50.686Z,71.10
2018-06-11T12:34:18.996Z,70.70
2018-06-11T12:36:47.337Z,69.50
2018-06-11T12:39:15.664Z,69.10
2018-06-11T12:41:44.004Z,69.50
2018-06-11T12:44:12.333Z,70.30
2018-06-11T12:46:40.685Z,70.90
2018-06-11T12:49:09.024Z,70.80
2018-06-11T12:51:37.374Z,70.50
2018-06-11T12:54:05.700Z,71.00
2018-06-11T12:56:34.060Z,71.70
2018-06-11T12:59:01.617Z,71.70
2018-06-11T13:01:30.039Z,72.50
2018-06-11T13:03:58.323Z,73.40
2018-06-11T13:06:26.659Z,73.40
2018-06-11T13:08:55.006Z,73.70
2018-06-11T13:11:23.329Z,74.30
2018-06-11T13:13:51.684Z,74.30
2018-06-11T13:16:20.017Z,75.00
2018-06-11T13:18:48.356Z,75.70
2018-06-11T13:21:16.741Z,76.20
2018-06-11T13:23:45.143Z,76.40
2018-06-11T13:26:13.562Z,77.00
2018-06-11T13:28:42.068Z,77.20
2018-06-11T13:31:10.473Z,77.50
2018-06-11T13:33:38.881Z,77.50
2018-06-11T13:36:07.204Z,77.90
2018-06-11T13:38:35.546Z,78.70
2018-06-11T13:41:03.884Z,79.00
2018-06-11T13:43:32.238Z,79.00
2018-06-11T13:46:00.571Z,79.90
2018-06-11T13:48:28.917Z,80.30
2018-06-11T13:50:57.237Z,80.40
2018-06-11T13:53:25.582Z,81.10
2018-06-11T13:55:53.940Z,81.20
2018-06-11T13:58:22.277Z,82.30
2018-06-11T14:00:49.836Z,82.20
2018-06-11T14:03:18.207Z,82.10
2018-06-11T14:05:46.584Z,81.80
2018-06-11T14:08:14.889Z,82.70
2018-06-11T14:10:43.234Z,82.60
2018-06-11T14:13:11.568Z,82.90
2018-06-11T14:15:39.914Z,83.80
2018-06-11T14:18:08.246Z,84.90
2018-06-11T14:20:35.817Z,84.90
2018-06-11T14:23:04.137Z,85.50
2018-06-11T14:25:32.485Z,85.20
2018-06-11T14:28:00.809Z,85.60
2018-06-11T14:30:29.164Z,85.70
2018-06-11T14:32:57.492Z,85.70
2018-06-11T14:35:25.840Z,86.60
2018-06-11T14:37:54.170Z,87.30
2018-06-11T14:40:22.518Z,88.00
2018-06-11T14:42:50.836Z,88.10
2018-06-11T14:45:19.183Z,88.30
2018-06-11T14:47:47.515Z,88.10
2018-06-11T14:50:15.870Z,87.90
2018-06-11T14:52:44.186Z,88.30
2018-06-11T14:55:12.535Z,86.70
2018-06-11T14:57:41.183Z,86.80
2018-06-11T15:00:09.526Z,85.60
2018-06-11T15:02:37.849Z,85.90
2018-06-11T15:05:06.193Z,85.80
2018-06-11T15:07:34.522Z,85.70
2018-06-11T15:10:02.879Z,85.40
2018-06-11T15:12:31.201Z,86.20
2018-06-11T15:14:59.556Z,84.60
2018-06-11T15:17:27.884Z,84.10
2018-06-11T15:19:56.222Z,84.60
2018-06-11T15:22:24.578Z,85.50
2018-06-11T15:24:52.904Z,84.10
2018-06-11T15:27:21.276Z,83.30
2018-06-11T15:29:49.601Z,81.20
2018-06-11T15:32:17.966Z,80.90
2018-06-11T15:34:46.347Z,81.60
2018-06-11T15:37:14.718Z,81.90
2018-06-11T15:39:43.055Z,82.50
2018-06-11T15:42:11.411Z,83.10
2018-06-11T15:44:39.734Z,82.70
2018-06-11T15:47:08.079Z,82.20
2018-06-11T15:49:36.404Z,81.60
2018-06-11T15:52:04.774Z,80.00
2018-06-11T15:54:33.113Z,79.00
2018-06-11T15:57:01.474Z,78.60
2018-06-11T15:59:29.799Z,77.90
2018-06-11T16:01:58.153Z,77.20
2018-06-11T16:04:26.484Z,77.40
2018-06-11T16:06:54.833Z,77.40
2018-06-11T16:09:23.168Z,77.90
2018-06-11T16:11:51.535Z,78.60
2018-06-11T16:14:19.861Z,79.10
2018-06-11T16:16:48.205Z,79.40
2018-06-11T16:19:16.533Z,79.40
2018-06-11T16:21:44.894Z,79.80
2018-06-11T16:24:13.220Z,81.20
2018-06-11T16:26:41.544Z,80.70
2018-06-11T16:29:09.884Z,81.10
2018-06-11T16:31:38.214Z,82.30
2018-06-11T16:34:06.565Z,81.10
2018-06-11T16:36:34.884Z,81.60
2018-06-11T16:39:03.231Z,81.90
2018-06-11T16:41:31.582Z,82.10
2018-06-11T16:43:59.942Z,82.80
2018-06-11T16:46:28.265Z,82.90
2018-06-11T16:48:56.616Z,83.20
2018-06-11T16:51:24.958Z,83.60
2018-06-11T16:53:53.335Z,83.70
2018-06-11T16:56:21.654Z,83.80
2018-06-11T16:58:50.000Z,84.00
2018-06-11T17:01:18.327Z,84.40
2018-06-11T17:03:46.659Z,84.70
2018-06-11T17:06:15.003Z,85.10
2018-06-11T17:08:43.290Z,86.20
2018-06-11T17:11:11.613Z,86.70
2018-06-11T17:13:39.951Z,87.20
2018-06-11T17:16:08.250Z,87.80
2018-06-11T17:18:36.562Z,88.40
2018-06-11T17:21:04.878Z,88.90
2018-06-11T17:23:33.186Z,89.30
2018-06-11T17:26:01.512Z,90.00
2018-06-11T17:28:29.816Z,90.00
2018-06-11T17:30:58.154Z,90.20
2018-06-11T17:33:26.447Z,90.70
2018-06-11T17:35:54.775Z,91.00
2018-06-11T17:38:23.083Z,91.10
2018-06-11T17:40:51.406Z,91.10
2018-06-11T17:43:19.711Z,91.00
2018-06-11T17:45:48.039Z,90.90
2018-06-11T17:48:16.338Z,90.80
2018-06-11T17:50:44.656Z,90.80
2018-06-11T17:53:12.961Z,90.80
2018-06-11T17:55:41.284Z,91.00
2018-06-11T17:58:09.587Z,91.00
2018-06-11T18:00:37.936Z,91.20
2018-06-11T18:03:06.230Z,91.60
2018-06-11T18:05:34.601Z,91.20
2018-06-11T18:08:02.882Z,90.90
2018-06-11T18:10:31.201Z,90.50
2018-06-11T18:12:59.506Z,90.90
2018-06-11T18:15:27.826Z,91.30
2018-06-11T18:17:56.158Z,91.50
2018-06-11T18:20:24.454Z,91.60
2018-06-11T18:22:52.783Z,91.40
2018-06-11T18:25:21.086Z,91.30
2018-06-11T18:27:49.410Z,91.00
2018-06-11T18:30:17.708Z,91.10
2018-06-11T18:32:46.026Z,91.30
2018-06-11T18:35:14.326Z,91.40
2018-06-11T18:37:42.646Z,91.70
2018-06-11T18:40:10.942Z,91.90
2018-06-11T18:42:39.273Z,92.00
2018-06-11T18:45:07.571Z,92.20
2018-06-11T18:47:35.890Z,92.40
2018-06-11T18:50:04.186Z,92.50
2018-06-11T18:52:32.514Z,92.70
2018-06-11T18:55:00.810Z,92.90
2018-06-11T18:57:29.128Z,93.00
2018-06-11T18:59:57.430Z,93.20
2018-06-11T19:02:25.746Z,93.30
2018-06-11T19:04:54.048Z,93.40
2018-06-11T19:07:22.376Z,93.50
2018-06-11T19:09:50.669Z,93.90
2018-06-11T19:12:19.046Z,94.10
2018-06-11T19:14:47.318Z,94.30
2018-06-11T19:17:15.662Z,94.40
2018-06-11T19:19:44.217Z,94.60
2018-06-11T19:22:12.644Z,94.70
2018-06-11T19:24:40.969Z,94.90
2018-06-11T19:27:09.282Z,95.10
2018-06-11T19:29:37.679Z,95.40
2018-06-11T19:32:05.964Z,95.80
2018-06-11T19:34:34.411Z,95.80
2018-06-11T19:37:02.748Z,95.80
2018-06-11T19:39:30.391Z,95.80
2018-06-11T19:41:58.686Z,96.20
2018-06-11T19:44:27.002Z,96.50
2018-06-11T19:46:55.310Z,96.60
2018-06-11T19:49:23.630Z,96.70
2018-06-11T19:51:51.932Z,96.70
2018-06-11T19:54:20.354Z,96.60
2018-06-11T19:56:48.627Z,96.70
2018-06-11T19:59:16.958Z,96.60
2018-06-11T20:01:45.259Z,96.10
2018-06-11T20:04:13.592Z,96.00
2018-06-11T20:06:41.890Z,95.90
2018-06-11T20:09:10.195Z,96.00
2018-06-11T20:11:38.575Z,96.10
2018-06-11T20:14:06.102Z,96.00
2018-06-11T20:16:34.436Z,96.20
2018-06-11T20:19:01.977Z,96.20
2018-06-11T20:21:30.307Z,96.00
2018-06-11T20:23:58.608Z,96.10
2018-06-11T20:26:26.939Z,96.20
2018-06-11T20:28:55.239Z,95.80
2018-06-11T20:31:23.559Z,95.10
2018-06-11T20:33:51.904Z,94.70
2018-06-11T20:36:20.219Z,94.70
2018-06-11T20:38:48.514Z,94.70
2018-06-11T20:41:16.837Z,95.00
2018-06-11T20:43:45.130Z,95.00
2018-06-11T20:46:13.450Z,95.10
2018-06-11T20:48:41.746Z,95.10
2018-06-11T20:51:10.070Z,95.10
2018-06-11T20:53:38.370Z,95.10
2018-06-11T20:56:06.694Z,95.20
2018-06-11T20:58:34.990Z,95.30
2018-06-11T21:01:03.311Z,95.50
2018-06-11T21:03:31.748Z,95.80
2018-06-11T21:05:59.954Z,95.80
2018-06-11T21:08:28.278Z,95.90
2018-06-11T21:10:56.588Z,95.90
2018-06-11T21:13:24.902Z,95.90
2018-06-11T21:15:53.221Z,95.90
2018-06-11T21:18:20.780Z,95.90
2018-06-11T21:20:49.074Z,95.50
2018-06-11T21:23:16.631Z,95.50
2018-06-11T21:25:44.930Z,94.60
2018-06-11T21:28:13.269Z,94.30
2018-06-11T21:30:41.573Z,94.40
2018-06-11T21:33:09.903Z,94.50
2018-06-11T21:35:38.205Z,94.90
2018-06-11T21:38:05.757Z,94.90
2018-06-11T21:40:34.063Z,95.60
2018-06-11T21:43:02.389Z,95.50
2018-06-11T21:45:29.926Z,95.50
2018-06-11T21:47:58.253Z,95.70
2018-06-11T21:50:26.556Z,96.00
2018-06-11T21:52:54.887Z,96.10
2018-06-11T21:55:23.194Z,96.20
2018-06-11T21:57:50.751Z,96.20
2018-06-11T22:00:19.047Z,96.20
2018-06-11T22:02:47.389Z,96.20
2018-06-11T22:05:15.686Z,96.20
2018-06-11T22:07:43.993Z,96.40
2018-06-11T22:10:12.310Z,96.50
2018-06-11T22:12:39.843Z,96.50
2018-06-11T22:15:08.170Z,96.70
2018-06-11T22:17:35.708Z,96.70
2018-06-11T22:20:04.027Z,96.70
2018-06-11T22:22:32.322Z,96.80
2018-06-11T22:25:00.644Z,96.90
2018-06-11T22:27:28.947Z,96.90
2018-06-11T22:29:57.279Z,97.30
2018-06-11T22:32:25.613Z,97.00
2018-06-11T22:34:53.926Z,97.00
2018-06-11T22:37:22.234Z,97.00
2018-06-11T22:39:50.570Z,97.10
2018-06-11T22:42:18.870Z,97.10
2018-06-11T22:44:47.205Z,97.10
2018-06-11T22:47:14.735Z,97.10
2018-06-11T22:49:42.301Z,97.00
2018-06-11T22:52:10.598Z,97.20
2018-06-11T22:54:38.934Z,97.20
2018-06-11T22:57:06.466Z,97.20
2018-06-11T22:59:34.796Z,97.30
2018-06-11T23:02:03.099Z,97.40
2018-06-11T23:04:31.424Z,97.50
2018-06-11T23:06:59.726Z,97.50
2018-06-11T23:09:28.059Z,97.40
2018-06-11T23:11:56.366Z,97.30
2018-06-11T23:14:24.694Z,97.10
2018-06-11T23:16:53.003Z,97.10
2018-06-11T23:19:21.339Z,97.20
2018-06-11T23:21:49.634Z,97.50
2018-06-11T23:24:17.938Z,97.80
2018-06-11T23:26:46.254Z,97.90
2018-06-11T23:29:13.811Z,97.90
2018-06-11T23:31:42.130Z,97.90
2018-06-11T23:34:10.433Z,98.10
2018-06-11T23:36:38.753Z,98.20
2018-06-11T23:39:07.062Z,98.20
2018-06-11T23:41:35.384Z,98.30
2018-06-11T23:44:03.689Z,98.20
2018-06-11T23:46:32.016Z,98.00
2018-06-11T23:49:00.323Z,97.90
2018-06-11T23:51:28.647Z,98.00
2018-06-11T23:53:56.942Z,97.90
2018-06-11T23:56:25.264Z,97.80
2018-06-11T23:58:53.568Z,97.70
